UMMG 241630Z 10005G08MPS CAVOK 26/13 Q1021 NOSIG
QNH:(hPa/inHg/mmHg)1021 / 30.15 / 766
QFE:(hPa/inHg/mmHg)1005 / 29.67 / 754
Temperature26
Dew Point13
Visibility> 10000
WeatherCAVOK
Cloud Cover
Transition Altitude6000 ft.
Transition LevelFL70
SQUAWK